Villegreen, Colorado
Current Conditions -  °F | °C
As of 3:53 AM on Wednesday 22 Oct 2014 (Local Time) from KLHX Reporting Station
Clear Clear  
Wind Chill: 55°   Ceiling: Unl
Heat Index: 55°   Visibility: 10mi
Dew Point: 46°   Wind: 12mph
Humidity: 72%   Direction: 280°W
Pressure: 29.93"   Gusts: NA
Location:  37.331°N, 103.371°W
Report Text: KLHX 220953Z AUTO 28010KT 10SM CLR 13/08 A2993 RMK AO2 SLP086 T01280078
Loading
Personal Weather Stations






























Interactive Weather Map
Tropical Storm Tracking
New forecast layout! Learn more

10-Day Weather Forecast

Advertisements
Track Severe Weather on mobile